Time;durP1;ratioP1;P1;durP2;ratioP2;P2;SDS_P1;SDS_P2;PMS_P1;PMS_P2;Temp;Humidity;BMP_temperature;BMP_pressure;BME280_temperature;BME280_humidity;BME280_pressure;Samples;Min_cycle;Max_cycle;Signal;HPM_P1;HPM_P2
2023/05/28 00:01:58;;;;;;;11.95;9.05;;;;;;;-140.66;100.00;55571.53;5105278;28;20028;-80
2023/05/28 00:04:44;;;;;;;17.20;9.90;;;;;;;-140.66;100.00;55571.53;5117571;28;20020;-79
2023/05/28 00:07:33;;;;;;;12.48;9.30;;;;;;;-140.66;100.00;55571.53;5116899;28;20027;-79
2023/05/28 00:10:18;;;;;;;14.70;9.43;;;;;;;-140.66;100.00;55571.53;5101836;28;20111;-80
2023/05/28 00:13:04;;;;;;;13.48;9.98;;;;;;;-140.66;100.00;55571.53;5115668;28;20039;-78
2023/05/28 00:15:50;;;;;;;12.88;9.00;;;;;;;-140.66;100.00;55571.53;5116366;28;20382;-79
2023/05/28 00:18:36;;;;;;;12.00;8.93;;;;;;;-140.66;100.00;55571.53;5116154;28;20105;-79
2023/05/28 00:21:21;;;;;;;15.57;8.95;;;;;;;-140.66;100.00;55571.53;5116787;28;20059;-79
2023/05/28 00:24:07;;;;;;;12.57;8.90;;;;;;;-140.66;100.00;55571.53;5101776;28;20028;-78
2023/05/28 00:26:53;;;;;;;12.50;8.93;;;;;;;-140.66;100.00;55571.53;5115846;28;20024;-78
2023/05/28 00:29:39;;;;;;;11.40;9.13;;;;;;;-140.66;100.00;55571.53;5101583;28;20063;-79
2023/05/28 00:32:25;;;;;;;13.32;8.95;;;;;;;-140.66;100.00;55571.53;5101598;28;20553;-79
2023/05/28 00:35:10;;;;;;;11.90;8.70;;;;;;;-140.66;100.00;55571.53;5100804;28;20027;-79
2023/05/28 00:37:56;;;;;;;13.98;8.75;;;;;;;-140.66;100.00;55571.53;5102626;28;20028;-79
2023/05/28 00:40:44;;;;;;;13.13;9.30;;;;;;;-140.66;100.00;55571.53;5100849;28;20032;-80
2023/05/28 00:43:31;;;;;;;13.48;9.00;;;;;;;-140.66;100.00;55571.53;5100919;28;20031;-79
2023/05/28 00:46:18;;;;;;;13.93;9.20;;;;;;;-140.66;100.00;55571.53;5115816;28;20046;-79
2023/05/28 00:49:05;;;;;;;12.18;8.90;;;;;;;-140.66;100.00;55571.53;5100722;28;20031;-79
2023/05/28 00:51:51;;;;;;;13.48;8.88;;;;;;;-140.66;100.00;55571.53;5115409;28;20028;-79
2023/05/28 00:54:37;;;;;;;13.13;8.82;;;;;;;-140.66;100.00;55571.53;5115105;28;20107;-79
2023/05/28 00:57:24;;;;;;;14.25;9.45;;;;;;;-140.66;100.00;55571.53;5115838;28;20027;-79
2023/05/28 01:00:11;;;;;;;11.43;8.73;;;;;;;-140.66;100.00;55571.53;5100766;28;20028;-79
2023/05/28 01:02:57;;;;;;;13.10;9.68;;;;;;;-140.66;100.00;55571.53;5114602;28;20031;-79
2023/05/28 01:05:43;;;;;;;13.32;9.43;;;;;;;-140.66;100.00;55571.53;5100810;28;20385;-79
2023/05/28 01:08:29;;;;;;;13.65;9.25;;;;;;;-140.66;100.00;55571.53;5100292;28;20042;-79
2023/05/28 01:11:17;;;;;;;13.80;8.63;;;;;;;-140.66;100.00;55571.53;5100394;28;20039;-78
2023/05/28 01:14:05;;;;;;;11.65;8.38;;;;;;;-140.66;100.00;55571.53;5116146;28;20046;-78
2023/05/28 01:16:51;;;;;;;15.93;9.35;;;;;;;-140.66;100.00;55571.53;5100153;28;20046;-79
2023/05/28 01:19:37;;;;;;;12.82;9.40;;;;;;;-140.66;100.00;55571.53;5100486;28;20028;-79
2023/05/28 01:22:28;;;;;;;11.20;9.32;;;;;;;-140.66;100.00;55571.53;5100475;28;20506;-79
2023/05/28 01:25:15;;;;;;;16.83;10.18;;;;;;;-140.66;100.00;55571.53;5100191;28;20028;-79
2023/05/28 01:28:03;;;;;;;14.60;9.70;;;;;;;-140.66;100.00;55571.53;5120400;28;20052;-78
2023/05/28 01:30:49;;;;;;;12.82;9.93;;;;;;;-140.66;100.00;55571.53;5117583;28;20028;-79
2023/05/28 01:33:35;;;;;;;14.55;9.23;;;;;;;-140.66;100.00;55571.53;5100190;28;20436;-79
2023/05/28 01:36:31;;;;;;;15.18;9.93;;;;;;;-140.66;100.00;55571.53;5101068;28;20352;-79
2023/05/28 01:39:19;;;;;;;13.55;8.70;;;;;;;-140.66;100.00;55571.53;5100740;28;20059;-79
2023/05/28 01:42:07;;;;;;;11.85;9.07;;;;;;;-140.66;100.00;55571.53;5115432;28;20050;-79
2023/05/28 01:44:54;;;;;;;13.68;9.63;;;;;;;-140.66;100.00;55571.53;5114452;28;20046;-79
2023/05/28 01:47:41;;;;;;;14.38;9.60;;;;;;;-140.66;100.00;55571.53;5133435;28;20011;-77
2023/05/28 01:50:28;;;;;;;17.73;10.13;;;;;;;-140.66;100.00;55571.53;5115358;28;20440;-79
2023/05/28 01:53:14;;;;;;;14.38;9.68;;;;;;;-140.66;100.00;55571.53;5115282;28;20463;-80
2023/05/28 01:56:01;;;;;;;16.10;9.65;;;;;;;-140.66;100.00;55571.53;5114674;28;20036;-79
2023/05/28 01:58:47;;;;;;;12.30;8.85;;;;;;;-140.66;100.00;55571.53;5118994;28;20028;-79
2023/05/28 02:01:33;;;;;;;14.27;9.10;;;;;;;-140.66;100.00;55571.53;5119230;28;20023;-79
2023/05/28 02:04:19;;;;;;;11.98;9.10;;;;;;;-140.66;100.00;55571.53;5118377;28;20032;-79
2023/05/28 02:07:05;;;;;;;14.45;8.95;;;;;;;-140.66;100.00;55571.53;5118652;28;20046;-79
2023/05/28 02:09:50;;;;;;;15.35;9.73;;;;;;;-140.66;100.00;55571.53;5103601;28;20039;-79
2023/05/28 02:12:36;;;;;;;14.55;9.15;;;;;;;-140.66;100.00;55571.53;5118105;28;20032;-79
2023/05/28 02:15:22;;;;;;;13.05;8.90;;;;;;;-140.66;100.00;55571.53;5118199;28;20024;-79
2023/05/28 02:18:10;;;;;;;12.32;8.63;;;;;;;-140.66;100.00;55571.53;5118254;28;20080;-78
2023/05/28 02:20:56;;;;;;;11.63;9.20;;;;;;;-140.66;100.00;55571.53;5118177;28;20034;-78
2023/05/28 02:23:44;;;;;;;19.58;10.20;;;;;;;-140.66;100.00;55571.53;5104062;28;20028;-78
2023/05/28 02:26:30;;;;;;;14.18;9.27;;;;;;;-140.66;100.00;55571.53;5104420;28;20016;-78
2023/05/28 02:29:16;;;;;;;12.27;8.75;;;;;;;-140.66;100.00;55571.53;5103322;28;20059;-78
2023/05/28 02:32:02;;;;;;;16.30;9.25;;;;;;;-140.66;100.00;55571.53;5103866;28;20077;-78
2023/05/28 02:34:48;;;;;;;13.45;9.05;;;;;;;-140.66;100.00;55571.53;5118523;28;20024;-79
2023/05/28 02:37:34;;;;;;;13.80;9.20;;;;;;;-140.66;100.00;55571.53;5117289;28;20452;-79
2023/05/28 02:40:20;;;;;;;13.20;9.05;;;;;;;-140.66;100.00;55571.53;5118751;28;20067;-78
2023/05/28 02:43:06;;;;;;;12.70;8.55;;;;;;;-140.66;100.00;55571.53;5103083;28;20477;-78
2023/05/28 02:45:51;;;;;;;16.92;9.20;;;;;;;-140.66;100.00;55571.53;5118043;28;20329;-79
2023/05/28 02:48:37;;;;;;;13.32;8.90;;;;;;;-140.66;100.00;55571.53;5117180;28;20020;-78
2023/05/28 02:51:23;;;;;;;13.18;9.07;;;;;;;-140.66;100.00;55571.53;5102809;28;20034;-79
2023/05/28 02:54:09;;;;;;;13.32;9.07;;;;;;;-140.66;100.00;55571.53;5116981;28;20027;-79
2023/05/28 02:56:55;;;;;;;13.27;8.98;;;;;;;-140.66;100.00;55571.53;5102852;28;20023;-78
2023/05/28 02:59:41;;;;;;;15.60;9.32;;;;;;;-140.66;100.00;55571.53;5118533;28;20028;-78
2023/05/28 03:02:26;;;;;;;16.23;9.65;;;;;;;-140.66;100.00;55571.53;5103082;28;20055;-79
2023/05/28 03:05:13;;;;;;;15.30;9.48;;;;;;;-140.66;100.00;55571.53;5102743;28;20114;-79
2023/05/28 03:07:58;;;;;;;14.88;9.05;;;;;;;-140.66;100.00;55571.53;5117046;28;20035;-79
2023/05/28 03:10:44;;;;;;;14.10;8.70;;;;;;;-140.66;100.00;55571.53;5116876;28;20023;-79
2023/05/28 03:13:30;;;;;;;16.58;9.23;;;;;;;-140.66;100.00;55571.53;5116685;28;20043;-79
2023/05/28 03:16:16;;;;;;;10.57;8.52;;;;;;;-140.66;100.00;55571.53;5117536;28;20440;-79
2023/05/28 03:19:02;;;;;;;14.10;8.65;;;;;;;-140.66;100.00;55571.53;5117209;28;20368;-80
2023/05/28 03:21:48;;;;;;;14.55;8.88;;;;;;;-140.66;100.00;55571.53;5102646;28;20566;-80
2023/05/28 03:24:34;;;;;;;14.20;8.88;;;;;;;-140.66;100.00;55571.53;5102836;28;20015;-79
2023/05/28 03:27:20;;;;;;;14.85;8.88;;;;;;;-140.66;100.00;55571.53;5116391;28;20109;-79
2023/05/28 03:30:09;;;;;;;17.58;9.45;;;;;;;-140.66;100.00;55571.53;5102113;28;20035;-79
2023/05/28 03:32:55;;;;;;;15.02;10.88;;;;;;;-140.66;100.00;55571.53;5102332;28;20023;-79
2023/05/28 03:35:41;;;;;;;15.18;10.55;;;;;;;-140.66;100.00;55571.53;5101354;28;20023;-79
2023/05/28 03:38:26;;;;;;;15.20;10.55;;;;;;;-140.66;100.00;55571.53;5116956;28;20108;-79
2023/05/28 03:41:12;;;;;;;14.00;9.85;;;;;;;-140.66;100.00;55571.53;5117632;28;20019;-79
2023/05/28 03:43:59;;;;;;;16.35;10.18;;;;;;;-140.66;100.00;55571.53;5117214;28;20031;-79
2023/05/28 03:46:44;;;;;;;16.65;10.45;;;;;;;-140.66;100.00;55571.53;5117278;28;20107;-78
2023/05/28 03:49:30;;;;;;;15.63;9.55;;;;;;;-140.66;100.00;55571.53;5116080;28;20099;-79
2023/05/28 03:52:16;;;;;;;14.07;10.70;;;;;;;-140.66;100.00;55571.53;5116447;28;20023;-79
2023/05/28 03:55:02;;;;;;;18.25;10.75;;;;;;;-140.66;100.00;55571.53;5116326;28;20444;-79
2023/05/28 03:57:47;;;;;;;17.05;10.32;;;;;;;-140.66;100.00;55571.53;5117638;28;20027;-79
2023/05/28 04:00:33;;;;;;;14.23;9.95;;;;;;;-140.66;100.00;55571.53;5102554;28;20027;-79
2023/05/28 04:03:19;;;;;;;13.80;10.10;;;;;;;-140.66;100.00;55571.53;5127803;28;20106;-77
2023/05/28 04:06:06;;;;;;;15.50;10.13;;;;;;;-140.66;100.00;55571.53;5123088;28;20023;-79
2023/05/28 04:08:52;;;;;;;13.98;10.25;;;;;;;-140.66;100.00;55571.53;5117555;28;20035;-79
2023/05/28 04:11:38;;;;;;;16.10;9.70;;;;;;;-140.66;100.00;55571.53;5116477;28;20100;-79
2023/05/28 04:14:25;;;;;;;15.85;9.30;;;;;;;-140.66;100.00;55571.53;5101771;28;20076;-79
2023/05/28 04:17:12;;;;;;;13.65;9.18;;;;;;;-140.66;100.00;55571.53;5116719;28;20039;-79
2023/05/28 04:19:58;;;;;;;12.23;9.02;;;;;;;-140.66;100.00;55571.53;5100538;28;20030;-79
2023/05/28 04:22:44;;;;;;;15.88;9.35;;;;;;;-140.66;100.00;55571.53;5116608;28;20070;-78
2023/05/28 04:25:31;;;;;;;13.65;8.80;;;;;;;-140.66;100.00;55571.53;5135952;28;20020;-78
2023/05/28 04:28:16;;;;;;;15.10;9.15;;;;;;;-140.66;100.00;55571.53;5119940;28;20476;-79
2023/05/28 04:31:03;;;;;;;17.95;9.73;;;;;;;-140.66;100.00;55571.53;5116271;28;20106;-78
2023/05/28 04:33:49;;;;;;;12.98;9.10;;;;;;;-140.66;100.00;55571.53;5101028;28;20118;-79
2023/05/28 04:36:36;;;;;;;15.57;9.15;;;;;;;-140.66;100.00;55571.53;5115642;28;20024;-79
2023/05/28 04:39:22;;;;;;;13.70;8.85;;;;;;;-140.66;100.00;55571.53;5101500;28;20087;-79
2023/05/28 04:42:09;;;;;;;12.05;8.80;;;;;;;-140.66;100.00;55571.53;5116506;28;20552;-79
2023/05/28 04:44:54;;;;;;;13.85;9.38;;;;;;;-140.66;100.00;55571.53;5101347;28;20051;-79
2023/05/28 04:47:40;;;;;;;14.30;8.90;;;;;;;-140.66;100.00;55571.53;5100842;28;20034;-79
2023/05/28 04:50:26;;;;;;;13.50;9.20;;;;;;;-140.66;100.00;55571.53;5100606;28;20026;-79
2023/05/28 04:53:12;;;;;;;14.23;8.82;;;;;;;-140.66;100.00;55571.53;5115963;28;20115;-80
2023/05/28 04:55:58;;;;;;;15.88;9.45;;;;;;;-140.66;100.00;55571.53;5099765;28;20019;-79
2023/05/28 04:58:43;;;;;;;10.80;8.75;;;;;;;-140.66;100.00;55571.53;5100951;28;20058;-79
2023/05/28 05:01:29;;;;;;;15.52;8.70;;;;;;;-140.66;100.00;55571.53;5114939;28;20031;-79
2023/05/28 05:04:15;;;;;;;15.95;9.40;;;;;;;-140.66;100.00;55571.53;5116511;27;20359;-79
2023/05/28 05:07:01;;;;;;;13.32;8.55;;;;;;;-140.66;100.00;55571.53;5115285;28;20023;-79
2023/05/28 05:09:47;;;;;;;16.55;8.68;;;;;;;-140.66;100.00;55571.53;5116598;28;20528;-78
2023/05/28 05:12:33;;;;;;;14.07;8.90;;;;;;;-140.66;100.00;55571.53;5100448;28;20019;-80
2023/05/28 05:15:19;;;;;;;19.73;9.45;;;;;;;-140.66;100.00;55571.53;5115617;28;20035;-80
2023/05/28 05:18:04;;;;;;;12.18;8.35;;;;;;;-140.66;100.00;55571.53;5114583;28;20055;-79
2023/05/28 05:20:50;;;;;;;15.73;9.13;;;;;;;-140.66;100.00;55571.53;5114570;28;20452;-80
2023/05/28 05:23:36;;;;;;;12.02;8.77;;;;;;;-140.66;100.00;55571.53;5114735;28;20407;-79
2023/05/28 05:26:21;;;;;;;12.93;9.00;;;;;;;-140.66;100.00;55571.53;5115319;28;20084;-79
2023/05/28 05:29:07;;;;;;;13.85;8.68;;;;;;;-140.66;100.00;55571.53;5115248;28;20096;-79
2023/05/28 05:31:53;;;;;;;14.48;8.27;;;;;;;-140.66;100.00;55571.53;5099332;28;20116;-79
2023/05/28 05:34:39;;;;;;;18.05;9.23;;;;;;;-140.66;100.00;55571.53;5115708;28;20031;-79
2023/05/28 05:37:24;;;;;;;14.10;8.40;;;;;;;-140.66;100.00;55571.53;5120353;28;20106;-76
2023/05/28 05:40:11;;;;;;;14.82;8.82;;;;;;;-140.66;100.00;55571.53;5123145;28;20031;-78
2023/05/28 05:42:56;;;;;;;16.00;9.02;;;;;;;-140.66;100.00;55571.53;5123778;28;20046;-78
2023/05/28 05:45:42;;;;;;;13.30;8.57;;;;;;;-140.66;100.00;55571.53;5121278;28;20019;-82
2023/05/28 05:48:28;;;;;;;13.07;8.75;;;;;;;-140.66;100.00;55571.53;5120345;28;20114;-77
2023/05/28 05:51:18;;;;;;;14.00;8.70;;;;;;;-140.66;100.00;55571.53;5123203;28;20028;-80
2023/05/28 05:54:03;;;;;;;15.98;8.77;;;;;;;-140.66;100.00;55571.53;5118019;28;20020;-80
2023/05/28 05:56:49;;;;;;;16.85;8.90;;;;;;;-140.66;100.00;55571.53;5100812;28;20401;-80
2023/05/28 05:59:35;;;;;;;11.45;8.50;;;;;;;-140.66;100.00;55571.53;5100371;28;20022;-79
2023/05/28 06:02:21;;;;;;;15.00;8.50;;;;;;;-140.66;100.00;55571.53;5115399;28;20051;-79
2023/05/28 06:05:07;;;;;;;16.35;8.45;;;;;;;-140.66;100.00;55571.53;5115121;28;20157;-79
2023/05/28 06:07:52;;;;;;;11.40;8.52;;;;;;;-140.66;100.00;55571.53;5115508;28;20054;-79
2023/05/28 06:10:38;;;;;;;13.27;8.45;;;;;;;-140.66;100.00;55571.53;5115447;28;20123;-79
2023/05/28 06:13:24;;;;;;;13.63;8.88;;;;;;;-140.66;100.00;55571.53;5101374;28;20031;-78
2023/05/28 06:16:11;;;;;;;14.10;7.72;;;;;;;-140.66;100.00;55571.53;5114709;28;20111;-80
2023/05/28 06:18:56;;;;;;;14.30;9.20;;;;;;;-140.66;100.00;55571.53;5099999;28;20440;-79
2023/05/28 06:21:42;;;;;;;15.10;8.00;;;;;;;-140.66;100.00;55571.53;5101191;28;20019;-79
2023/05/28 06:24:28;;;;;;;15.10;8.18;;;;;;;-140.66;100.00;55571.53;5100521;28;20360;-80
2023/05/28 06:27:14;;;;;;;16.50;8.40;;;;;;;-140.66;100.00;55571.53;5113845;28;20047;-80
2023/05/28 06:29:59;;;;;;;13.50;8.25;;;;;;;-140.66;100.00;55571.53;5114989;28;20050;-79
2023/05/28 06:32:45;;;;;;;15.88;7.72;;;;;;;-140.66;100.00;55571.53;5101620;28;20027;-78
2023/05/28 06:35:31;;;;;;;12.60;8.20;;;;;;;-140.66;100.00;55571.53;5116844;28;20118;-80
2023/05/28 06:38:16;;;;;;;12.10;8.05;;;;;;;-140.66;100.00;55571.53;5100626;28;20059;-80
2023/05/28 06:41:02;;;;;;;15.75;8.02;;;;;;;-140.66;100.00;55571.53;5117740;28;20028;-78
2023/05/28 06:43:48;;;;;;;12.90;7.47;;;;;;;-140.66;100.00;55571.53;5114993;28;20110;-78
2023/05/28 06:46:34;;;;;;;11.40;7.88;;;;;;;-140.66;100.00;55571.53;5108792;28;20150;-78
2023/05/28 06:49:20;;;;;;;13.50;8.23;;;;;;;-140.66;100.00;55571.53;5109009;28;20019;-79
2023/05/28 06:52:05;;;;;;;15.05;8.73;;;;;;;-140.66;100.00;55571.53;5104768;28;20127;-79
2023/05/28 06:54:51;;;;;;;14.80;8.75;;;;;;;-140.66;100.00;55571.53;5118762;28;20435;-78
2023/05/28 06:57:37;;;;;;;14.27;8.57;;;;;;;-140.66;100.00;55571.53;5117575;28;20432;-79
2023/05/28 07:00:23;;;;;;;15.25;8.75;;;;;;;-140.66;100.00;55571.53;5117515;28;20023;-79
2023/05/28 07:03:09;;;;;;;13.80;9.02;;;;;;;-140.66;100.00;55571.53;5116079;28;20035;-79
2023/05/28 07:05:55;;;;;;;15.70;8.70;;;;;;;-140.66;100.00;55571.53;5125193;28;20104;-80
2023/05/28 07:08:44;;;;;;;16.75;8.70;;;;;;;-140.66;100.00;55571.53;5118479;28;20110;-79
2023/05/28 07:11:30;;;;;;;15.32;8.85;;;;;;;-140.66;100.00;55571.53;5117275;28;20096;-79
2023/05/28 07:14:15;;;;;;;12.75;8.40;;;;;;;-140.66;100.00;55571.53;5117719;28;20031;-79
2023/05/28 07:17:01;;;;;;;15.10;8.30;;;;;;;-140.66;100.00;55571.53;5102559;28;20042;-79
2023/05/28 07:19:48;;;;;;;10.63;8.02;;;;;;;-140.66;100.00;55571.53;5117380;28;20369;-79
2023/05/28 07:22:33;;;;;;;11.57;7.75;;;;;;;-140.66;100.00;55571.53;5102714;28;20051;-79
2023/05/28 07:25:20;;;;;;;11.93;7.78;;;;;;;-140.66;100.00;55571.53;5102459;28;20440;-79
2023/05/28 07:28:06;;;;;;;11.40;8.27;;;;;;;-140.66;100.00;55571.53;5116566;28;20376;-79
2023/05/28 07:30:51;;;;;;;13.38;8.35;;;;;;;-140.66;100.00;55571.53;5102017;28;20019;-79
2023/05/28 07:33:37;;;;;;;11.02;7.80;;;;;;;-140.66;100.00;55571.53;5102439;28;20038;-79
2023/05/28 07:36:23;;;;;;;16.05;9.52;;;;;;;-140.66;100.00;55571.53;5102459;28;20110;-80
2023/05/28 07:39:10;;;;;;;15.77;9.27;;;;;;;-140.66;100.00;55571.53;5102244;28;20084;-79
2023/05/28 07:41:55;;;;;;;15.35;9.43;;;;;;;-140.66;100.00;55571.53;5116177;28;20051;-79
2023/05/28 07:44:41;;;;;;;13.13;9.00;;;;;;;-140.66;100.00;55571.53;5118530;28;20034;-78
2023/05/28 07:47:27;;;;;;;17.98;9.20;;;;;;;-140.66;100.00;55571.53;5116790;28;20466;-78
2023/05/28 07:50:13;;;;;;;13.57;8.38;;;;;;;-140.66;100.00;55571.53;5101983;28;20462;-78
2023/05/28 07:53:01;;;;;;;13.10;8.10;;;;;;;-140.66;100.00;55571.53;5116580;28;20072;-79
2023/05/28 07:55:47;;;;;;;11.32;8.10;;;;;;;-140.66;100.00;55571.53;5114970;28;20117;-78
2023/05/28 07:58:35;;;;;;;9.90;7.85;;;;;;;-140.66;100.00;55571.53;5116265;28;20431;-79
2023/05/28 08:01:21;;;;;;;12.27;8.90;;;;;;;-140.66;100.00;55571.53;5115713;28;20093;-79
2023/05/28 08:04:07;;;;;;;18.95;8.98;;;;;;;-140.66;100.00;55571.53;5102072;28;20019;-79
2023/05/28 08:06:53;;;;;;;12.63;8.60;;;;;;;-140.66;100.00;55571.53;5116789;28;20031;-78
2023/05/28 08:09:41;;;;;;;14.13;8.13;;;;;;;-140.66;100.00;55571.53;5115781;28;20023;-78
2023/05/28 08:12:26;;;;;;;12.88;8.68;;;;;;;-140.66;100.00;55571.53;5101478;28;20103;-79
2023/05/28 08:15:12;;;;;;;11.50;8.05;;;;;;;-140.66;100.00;55571.53;5115962;28;20024;-79
2023/05/28 08:17:58;;;;;;;15.15;8.43;;;;;;;-140.66;100.00;55571.53;5101437;28;20042;-79
2023/05/28 08:20:44;;;;;;;10.23;8.05;;;;;;;-140.66;100.00;55571.53;5115745;28;20031;-80
2023/05/28 08:23:34;;;;;;;11.10;8.18;;;;;;;-140.66;100.00;55571.53;5115564;28;20101;-78
2023/05/28 08:26:20;;;;;;;11.30;7.55;;;;;;;-140.66;100.00;55571.53;5116056;28;20439;-78
2023/05/28 08:29:06;;;;;;;14.50;8.68;;;;;;;-140.66;100.00;55571.53;5116695;28;20050;-78
2023/05/28 08:31:52;;;;;;;14.18;8.35;;;;;;;-140.66;100.00;55571.53;5115472;28;20494;-78
2023/05/28 08:34:38;;;;;;;9.65;7.20;;;;;;;-140.66;100.00;55571.53;5115471;28;20028;-78
2023/05/28 08:37:23;;;;;;;11.23;8.40;;;;;;;-140.66;100.00;55571.53;5101838;28;20339;-79
2023/05/28 08:40:10;;;;;;;11.70;8.13;;;;;;;-140.66;100.00;55571.53;5115434;28;20356;-79
2023/05/28 08:42:56;;;;;;;12.00;8.15;;;;;;;-140.66;100.00;55571.53;5115525;28;20023;-78
2023/05/28 08:45:42;;;;;;;10.43;8.18;;;;;;;-140.66;100.00;55571.53;5116873;28;20435;-79
2023/05/28 08:48:33;;;;;;;13.57;7.72;;;;;;;-140.66;100.00;55571.53;5115473;28;20114;-79
2023/05/28 08:51:23;;;;;;;11.02;7.25;;;;;;;-140.66;100.00;55571.53;5100654;28;20023;-79
2023/05/28 08:54:09;;;;;;;11.15;7.50;;;;;;;-140.66;100.00;55571.53;5115512;28;20023;-79
2023/05/28 08:56:55;;;;;;;11.73;7.32;;;;;;;-140.66;100.00;55571.53;5100654;28;20024;-79
2023/05/28 08:59:41;;;;;;;11.55;7.57;;;;;;;-140.66;100.00;55571.53;5116142;28;20084;-79
2023/05/28 09:02:26;;;;;;;11.48;7.05;;;;;;;-140.66;100.00;55571.53;5115211;28;20114;-78
2023/05/28 09:05:12;;;;;;;9.68;6.90;;;;;;;-140.66;100.00;55571.53;5100754;28;20023;-79
2023/05/28 09:07:58;;;;;;;11.32;6.90;;;;;;;-140.66;100.00;55571.53;5115291;28;20034;-80
2023/05/28 09:10:44;;;;;;;11.95;6.38;;;;;;;-140.66;100.00;55571.53;5101760;28;20062;-79
2023/05/28 09:13:29;;;;;;;11.20;7.35;;;;;;;-140.66;100.00;55571.53;5115301;28;20106;-78
2023/05/28 09:16:24;;;;;;;10.05;7.25;;;;;;;-140.66;100.00;55571.53;5115399;28;20055;-80
2023/05/28 09:19:14;;;;;;;13.32;7.63;;;;;;;-140.66;100.00;55571.53;5116731;28;20031;-80
2023/05/28 09:22:01;;;;;;;11.68;8.00;;;;;;;-140.66;100.00;55571.53;5116801;27;20089;-80
2023/05/28 09:24:50;;;;;;;11.95;6.78;;;;;;;-140.66;100.00;55571.53;5103537;28;20099;-79
2023/05/28 09:27:36;;;;;;;12.02;7.38;;;;;;;-140.66;100.00;55571.53;5106033;28;20434;-79
2023/05/28 09:30:23;;;;;;;9.20;7.30;;;;;;;-140.66;100.00;55571.53;5115710;28;20116;-79
2023/05/28 09:33:09;;;;;;;9.00;6.97;;;;;;;-140.66;100.00;55571.53;5115619;28;20030;-80
2023/05/28 09:36:02;;;;;;;11.27;7.22;;;;;;;-140.66;100.00;55571.53;5114500;28;20040;-80
2023/05/28 09:38:48;;;;;;;12.55;6.72;;;;;;;-140.66;100.00;55571.53;5104764;28;20063;-79
2023/05/28 09:41:36;;;;;;;20.08;6.95;;;;;;;-140.66;100.00;55571.53;5116673;28;20030;-79
2023/05/28 09:44:21;;;;;;;13.48;7.20;;;;;;;-140.66;100.00;55571.53;5121068;28;20029;-79
2023/05/28 09:47:17;;;;;;;8.77;6.72;;;;;;;-140.66;100.00;55571.53;5127219;28;20019;-79
2023/05/28 09:50:04;;;;;;;7.80;6.80;;;;;;;-140.66;100.00;55571.53;5104659;28;20046;-78
2023/05/28 09:52:54;;;;;;;10.70;6.53;;;;;;;-140.66;100.00;55571.53;5104495;28;20035;-78
2023/05/28 09:55:40;;;;;;;11.90;6.63;;;;;;;-140.66;100.00;55571.53;5116644;28;20069;-79
2023/05/28 09:58:37;;;;;;;7.85;6.10;;;;;;;-140.66;100.00;55571.53;5103352;28;20099;-78
2023/05/28 10:01:26;;;;;;;10.60;7.20;;;;;;;-140.66;100.00;55571.53;5118813;28;20027;-79
2023/05/28 10:04:15;;;;;;;9.13;6.50;;;;;;;-140.66;100.00;55571.53;5117430;28;20019;-79
2023/05/28 10:07:03;;;;;;;10.63;6.22;;;;;;;-140.66;100.00;55571.53;5116227;28;20024;-79
2023/05/28 10:09:51;;;;;;;10.90;7.05;;;;;;;-140.66;100.00;55571.53;5099908;28;20397;-80
2023/05/28 10:12:37;;;;;;;11.93;6.88;;;;;;;-140.66;100.00;55571.53;5100183;28;20463;-79
2023/05/28 10:15:24;;;;;;;10.90;7.43;;;;;;;-140.66;100.00;55571.53;5115442;28;20166;-80
2023/05/28 10:18:11;;;;;;;9.70;6.43;;;;;;;-140.66;100.00;55571.53;5116874;28;20019;-78
2023/05/28 10:20:58;;;;;;;11.60;6.68;;;;;;;-140.66;100.00;55571.53;5120949;28;20038;-78
2023/05/28 10:23:44;;;;;;;18.13;7.97;;;;;;;-140.66;100.00;55571.53;5122448;28;20023;-79
2023/05/28 10:26:31;;;;;;;9.45;6.70;;;;;;;-140.66;100.00;55571.53;5118487;28;20033;-79
2023/05/28 10:29:16;;;;;;;12.43;6.95;;;;;;;-140.66;100.00;55571.53;5107439;28;20070;-79
2023/05/28 10:32:04;;;;;;;8.80;6.93;;;;;;;-140.66;100.00;55571.53;5123705;28;20083;-80
2023/05/28 10:35:02;;;;;;;22.15;7.25;;;;;;;-140.66;100.00;55571.53;5118135;28;20444;-79
2023/05/28 10:37:47;;;;;;;10.35;7.07;;;;;;;-140.66;100.00;55571.53;5105242;28;20039;-78
2023/05/28 10:40:39;;;;;;;8.43;6.70;;;;;;;-140.66;100.00;55571.53;5118371;28;20058;-78
2023/05/28 10:43:46;;;;;;;18.23;7.38;;;;;;;-140.66;100.00;55571.53;5107692;28;20088;-79
2023/05/28 10:46:36;;;;;;;15.38;7.07;;;;;;;-140.66;100.00;55571.53;5107974;28;20073;-79
2023/05/28 10:49:23;;;;;;;13.95;7.13;;;;;;;-140.66;100.00;55571.53;5105477;28;20367;-79
2023/05/28 10:52:20;;;;;;;23.70;7.25;;;;;;;-140.66;100.00;55571.53;5119077;28;20038;-78
2023/05/28 10:55:12;;;;;;;13.05;6.70;;;;;;;-140.66;100.00;55571.53;5121497;28;20126;-79
2023/05/28 10:58:11;;;;;;;16.95;6.63;;;;;;;-140.66;100.00;55571.53;5118598;28;20040;-78
2023/05/28 11:01:04;;;;;;;11.77;6.53;;;;;;;-140.66;100.00;55571.53;5120590;28;20027;-79
2023/05/28 11:03:54;;;;;;;10.65;6.10;;;;;;;-140.66;100.00;55571.53;5106368;28;20079;-79
2023/05/28 11:06:41;;;;;;;13.23;6.85;;;;;;;-140.66;100.00;55571.53;5120232;28;20443;-79
2023/05/28 11:09:27;;;;;;;15.82;6.78;;;;;;;-140.66;100.00;55571.53;5104312;28;20043;-79
2023/05/28 11:12:13;;;;;;;12.60;6.88;;;;;;;-140.66;100.00;55571.53;5103299;28;20032;-79
2023/05/28 11:14:59;;;;;;;18.52;7.05;;;;;;;-140.66;100.00;55571.53;5104382;28;20329;-79
2023/05/28 11:17:46;;;;;;;8.00;6.55;;;;;;;-140.66;100.00;55571.53;5120549;28;20364;-78
2023/05/28 11:20:31;;;;;;;12.95;6.90;;;;;;;-140.66;100.00;55571.53;5118934;28;20033;-80
2023/05/28 11:23:17;;;;;;;11.75;6.88;;;;;;;-140.66;100.00;55571.53;5118421;28;20019;-80
2023/05/28 11:26:04;;;;;;;11.02;6.43;;;;;;;-140.66;100.00;55571.53;5117932;28;20024;-78
2023/05/28 11:28:50;;;;;;;9.02;6.10;;;;;;;-140.66;100.00;55571.53;5102869;28;20478;-79
2023/05/28 11:31:40;;;;;;;11.50;5.63;;;;;;;-140.66;100.00;55571.53;5102792;28;20478;-79
2023/05/28 11:34:26;;;;;;;10.90;6.40;;;;;;;-140.66;100.00;55571.53;5118738;28;20023;-79
2023/05/28 11:37:12;;;;;;;9.43;6.10;;;;;;;-140.66;100.00;55571.53;5117629;28;20024;-78
2023/05/28 11:39:59;;;;;;;14.15;6.50;;;;;;;-140.66;100.00;55571.53;5103689;28;20459;-79
2023/05/28 11:42:45;;;;;;;10.05;6.65;;;;;;;-140.66;100.00;55571.53;5103515;28;20027;-79
2023/05/28 11:45:37;;;;;;;8.98;6.63;;;;;;;-140.66;100.00;55571.53;5102471;28;20019;-79
2023/05/28 11:48:23;;;;;;;8.82;6.40;;;;;;;-140.66;100.00;55571.53;5102631;28;20023;-79
2023/05/28 11:51:08;;;;;;;8.27;6.18;;;;;;;-140.66;100.00;55571.53;5118868;28;20035;-79
2023/05/28 11:53:54;;;;;;;10.70;6.07;;;;;;;-140.66;100.00;55571.53;5134631;28;20020;-79
2023/05/28 11:56:40;;;;;;;8.23;6.25;;;;;;;-140.66;100.00;55571.53;5128657;28;20027;-78
2023/05/28 11:59:26;;;;;;;10.02;6.85;;;;;;;-140.66;100.00;55571.53;5108023;28;20096;-80
2023/05/28 12:02:18;;;;;;;10.07;6.00;;;;;;;-140.66;100.00;55571.53;5121388;28;20035;-79
2023/05/28 12:05:04;;;;;;;10.75;6.70;;;;;;;-140.66;100.00;55571.53;5104514;28;20102;-79
2023/05/28 12:07:52;;;;;;;15.82;6.57;;;;;;;-140.66;100.00;55571.53;5117030;28;20462;-79
2023/05/28 12:10:38;;;;;;;13.55;5.97;;;;;;;-140.66;100.00;55571.53;5122765;28;20035;-79
2023/05/28 12:13:31;;;;;;;9.07;6.13;;;;;;;-140.66;100.00;55571.53;5125769;28;20024;-79
2023/05/28 12:16:16;;;;;;;8.25;5.60;;;;;;;-140.66;100.00;55571.53;5111711;28;20059;-79
2023/05/28 12:19:04;;;;;;;10.15;5.50;;;;;;;-140.66;100.00;55571.53;5132186;28;20004;-78
2023/05/28 12:21:50;;;;;;;17.88;5.88;;;;;;;-140.66;100.00;55571.53;5136873;28;20049;-79
2023/05/28 12:24:35;;;;;;;8.07;5.97;;;;;;;-140.66;100.00;55571.53;5122660;28;20019;-79
2023/05/28 12:27:21;;;;;;;8.25;5.75;;;;;;;-140.66;100.00;55571.53;5119499;28;20052;-78
2023/05/28 12:30:07;;;;;;;7.85;5.80;;;;;;;-140.66;100.00;55571.53;5106501;28;20114;-78